Main page
METAR-TAF:

METAR-TAF

Airports :

Oban Airport

Oban, Scotland

latitude: 56-27-49N, longitude: 5-24-00W, elevation: 7 m

Current weather observation

The report was made 6 hours and 32 minutes ago, at 14:50 UTC
Wind 12 kt from the West/Southwest
Temperature 13°C
Humidity 62%
Pressure 1001 hPa
Few clouds at a height of 3400 ft

METAR: EGEO 201450Z 24012KT FEW034 13/06 Q1001

Time: 22:22 (21:22 UTC)

Forecast

The report was made 7 hours and 30 minutes ago, at 13:52 UTC
Forecast valid from 20 at 15 UTC to 20 at 17 UTC
Wind 13 kt from the Southwest
Visibility 10 km or more
Scattered clouds at a height of 3000 ft

TAF: EGEO 201352Z 2015/2017 23013KT 9999 SCT030

Weather observations and forecasts of more than 4000 airports (METAR and TAF reports).

The available stations are represented by yellow and red dots on the map.

Hover mouse over dot to see the name of the station.

Then click to see weather observations and forecasts.

To change the map : click on the green buttons with a black cross to zoom in, on the green button with a dash to zoom out, or on the green arrows for adjacent maps.


METAR-TAF: